createdAt,value
2018-05-29T00:01:32.652Z,30.07
2018-05-29T00:03:58.932Z,29.47
2018-05-29T00:06:25.206Z,30.63
2018-05-29T00:08:51.381Z,30.80
2018-05-29T00:11:17.622Z,35.73
2018-05-29T00:13:43.818Z,37.37
2018-05-29T00:16:10.193Z,36.57
2018-05-29T00:18:37.161Z,36.27
2018-05-29T00:21:03.360Z,35.17
2018-05-29T00:23:29.562Z,35.60
2018-05-29T00:25:55.755Z,35.90
2018-05-29T00:28:22.056Z,36.27
2018-05-29T00:30:48.993Z,36.30
2018-05-29T00:33:15.177Z,34.93
2018-05-29T00:35:41.375Z,34.27
2018-05-29T00:38:07.634Z,35.40
2018-05-29T00:40:33.837Z,36.67
2018-05-29T00:43:00.065Z,36.67
2018-05-29T00:45:26.318Z,36.80
2018-05-29T00:47:52.523Z,37.37
2018-05-29T00:50:18.718Z,38.30
2018-05-29T00:52:45.678Z,40.30
2018-05-29T00:55:24.087Z,38.03
2018-05-29T00:57:50.305Z,35.90
2018-05-29T01:00:17.230Z,38.40
2018-05-29T01:02:43.432Z,38.57
2018-05-29T01:05:09.642Z,38.90
2018-05-29T01:07:35.852Z,38.07
2018-05-29T01:10:02.040Z,36.30
2018-05-29T01:12:28.245Z,38.33
2018-05-29T01:14:54.449Z,40.33
2018-05-29T01:17:20.654Z,38.60
2018-05-29T01:19:46.833Z,38.53
2018-05-29T01:22:13.049Z,39.60
2018-05-29T01:24:39.246Z,39.50
2018-05-29T01:27:05.469Z,38.20
2018-05-29T01:29:31.696Z,38.90
2018-05-29T01:31:57.873Z,39.50
2018-05-29T01:34:24.102Z,37.00
2018-05-29T01:36:50.275Z,38.40
2018-05-29T01:39:16.479Z,38.10
2018-05-29T01:41:43.478Z,36.90
2018-05-29T01:44:09.677Z,38.73
2018-05-29T01:46:35.926Z,38.83
2018-05-29T01:49:02.131Z,40.80
2018-05-29T01:51:28.311Z,41.80
2018-05-29T01:53:54.504Z,41.60
2018-05-29T01:56:20.677Z,42.90
2018-05-29T01:58:46.881Z,40.90
2018-05-29T02:01:13.068Z,41.37
2018-05-29T02:03:39.261Z,42.67
2018-05-29T02:06:06.231Z,44.80
2018-05-29T02:08:32.479Z,45.10
2018-05-29T02:10:58.661Z,44.90
2018-05-29T02:13:24.865Z,43.40
2018-05-29T02:15:51.050Z,44.80
2018-05-29T02:18:17.241Z,45.77
2018-05-29T02:20:43.424Z,46.43
2018-05-29T02:23:09.617Z,46.63
2018-05-29T02:25:35.805Z,46.43
2018-05-29T02:28:02.043Z,46.20
2018-05-29T02:30:28.225Z,47.23
2018-05-29T02:32:54.417Z,45.90
2018-05-29T02:35:20.647Z,47.13
2018-05-29T02:37:46.861Z,47.63
2018-05-29T02:40:13.057Z,47.00
2018-05-29T02:42:39.233Z,46.87
2018-05-29T02:45:05.456Z,47.97
2018-05-29T02:47:31.656Z,46.43
2018-05-29T02:49:57.884Z,47.20
2018-05-29T02:52:24.810Z,46.43
2018-05-29T02:54:51.041Z,47.13
2018-05-29T02:57:17.223Z,47.47
2018-05-29T02:59:43.446Z,48.07
2018-05-29T03:02:09.653Z,49.00
2018-05-29T03:04:36.598Z,47.03
2018-05-29T03:07:02.777Z,48.07
2018-05-29T03:09:28.992Z,46.60
2018-05-29T03:11:55.210Z,47.00
2018-05-29T03:14:21.399Z,46.70
2018-05-29T03:16:48.326Z,46.40
2018-05-29T03:19:14.544Z,48.37
2018-05-29T03:21:40.753Z,46.67
2018-05-29T03:24:06.964Z,47.60
2018-05-29T03:26:33.159Z,46.87
2018-05-29T03:29:00.112Z,49.73
2018-05-29T03:31:26.339Z,50.33
2018-05-29T03:33:52.529Z,47.80
2018-05-29T03:36:18.719Z,49.40
2018-05-29T03:38:44.931Z,49.37
2018-05-29T03:41:11.157Z,48.63
2018-05-29T03:43:37.378Z,47.63
2018-05-29T03:46:03.577Z,49.70
2018-05-29T03:48:29.786Z,49.80
2018-05-29T03:50:55.966Z,49.57
2018-05-29T03:53:22.166Z,47.37
2018-05-29T03:55:48.356Z,46.33
2018-05-29T03:58:14.570Z,48.87
2018-05-29T04:00:40.782Z,49.63
2018-05-29T04:03:06.961Z,47.87
2018-05-29T04:05:33.164Z,47.83
2018-05-29T04:07:59.369Z,45.97
2018-05-29T04:10:25.594Z,47.37
2018-05-29T04:12:51.789Z,46.30
2018-05-29T04:15:18.768Z,47.53
2018-05-29T04:17:44.961Z,46.73
2018-05-29T04:20:12.011Z,47.67
2018-05-29T04:22:38.954Z,48.17
2018-05-29T04:25:05.366Z,45.03
2018-05-29T04:27:31.593Z,46.70
2018-05-29T04:29:57.792Z,48.50
2018-05-29T04:32:24.004Z,47.00
2018-05-29T04:34:50.253Z,46.87
2018-05-29T04:37:16.460Z,44.53
2018-05-29T04:39:42.685Z,47.30
2018-05-29T04:42:08.914Z,44.50
2018-05-29T04:44:35.142Z,44.90
2018-05-29T04:47:01.393Z,44.97
2018-05-29T04:49:27.569Z,45.47
2018-05-29T04:51:53.793Z,42.73
2018-05-29T04:54:20.134Z,44.27
2018-05-29T04:56:46.341Z,43.47
2018-05-29T04:59:13.281Z,42.00
2018-05-29T05:01:39.463Z,42.77
2018-05-29T05:04:05.653Z,42.87
2018-05-29T05:06:31.862Z,43.13
2018-05-29T05:08:58.796Z,43.70
2018-05-29T05:11:25.026Z,44.00
2018-05-29T05:13:51.269Z,41.70
2018-05-29T05:16:17.641Z,41.17
2018-05-29T05:18:43.908Z,41.00
2018-05-29T05:21:10.162Z,42.03
2018-05-29T05:23:37.137Z,39.87
2018-05-29T05:26:03.412Z,40.70
2018-05-29T05:28:29.572Z,40.47
2018-05-29T05:30:55.845Z,37.87
2018-05-29T05:33:22.040Z,37.30
2018-05-29T05:35:48.273Z,38.27
2018-05-29T05:38:14.467Z,37.70
2018-05-29T05:40:40.669Z,37.30
2018-05-29T05:43:07.065Z,37.93
2018-05-29T05:45:33.270Z,34.50
2018-05-29T05:47:59.455Z,35.23
2018-05-29T05:50:25.767Z,35.93
2018-05-29T05:52:51.957Z,35.90
2018-05-29T05:55:18.141Z,36.57
2018-05-29T05:57:44.345Z,38.23
2018-05-29T06:00:10.571Z,37.33
2018-05-29T06:02:37.573Z,39.30
2018-05-29T06:05:04.589Z,40.27
2018-05-29T06:07:30.778Z,39.83
2018-05-29T06:09:57.026Z,39.70
2018-05-29T06:12:23.225Z,39.47
2018-05-29T06:14:49.447Z,38.50
2018-05-29T06:17:15.653Z,38.70
2018-05-29T06:19:41.881Z,35.60
2018-05-29T06:22:08.834Z,35.77
2018-05-29T06:24:35.032Z,32.07
2018-05-29T06:27:01.256Z,34.03
2018-05-29T06:29:27.433Z,33.80
2018-05-29T06:31:53.659Z,34.40
2018-05-29T06:34:19.887Z,32.00
2018-05-29T06:36:46.142Z,35.00
2018-05-29T06:39:12.344Z,34.37
2018-05-29T06:41:38.553Z,37.67
2018-05-29T06:44:04.746Z,33.33
2018-05-29T06:46:30.973Z,32.73
2018-05-29T06:48:57.195Z,33.10
2018-05-29T06:51:23.385Z,31.10
2018-05-29T06:53:49.605Z,29.30
2018-05-29T06:56:15.869Z,31.57
2018-05-29T06:58:42.096Z,30.47
2018-05-29T07:01:08.311Z,30.93
2018-05-29T07:03:34.572Z,29.53
2018-05-29T07:06:00.788Z,29.23
2018-05-29T07:08:27.018Z,27.70
2018-05-29T07:10:53.226Z,28.10
2018-05-29T07:13:19.428Z,30.47
2018-05-29T07:15:45.624Z,31.17
2018-05-29T07:18:12.551Z,29.03
2018-05-29T07:20:38.762Z,27.13
2018-05-29T07:23:04.941Z,34.27
2018-05-29T07:25:31.147Z,40.33
2018-05-29T07:27:58.092Z,40.77
2018-05-29T07:30:24.367Z,44.13
2018-05-29T07:32:50.577Z,38.60
2018-05-29T07:35:16.799Z,40.57
2018-05-29T07:37:43.021Z,41.87
2018-05-29T07:40:09.230Z,40.00
2018-05-29T07:42:35.483Z,34.63
2018-05-29T07:45:01.670Z,33.27
2018-05-29T07:47:27.883Z,32.73
2018-05-29T07:49:54.079Z,37.10
2018-05-29T07:52:20.293Z,34.87
2018-05-29T07:54:46.484Z,37.00
2018-05-29T07:57:13.447Z,34.20
2018-05-29T07:59:40.368Z,34.20
2018-05-29T08:02:06.773Z,29.87
2018-05-29T08:04:32.957Z,29.90
2018-05-29T08:06:59.175Z,26.93
2018-05-29T08:09:26.126Z,26.47
2018-05-29T08:11:52.347Z,27.07
2018-05-29T08:14:19.271Z,28.23
2018-05-29T08:16:45.473Z,23.77
2018-05-29T08:19:11.654Z,28.00
2018-05-29T08:21:37.930Z,26.90
2018-05-29T08:24:04.166Z,30.83
2018-05-29T08:26:30.382Z,25.80
2018-05-29T08:28:56.593Z,23.27
2018-05-29T08:31:22.794Z,21.07
2018-05-29T08:33:48.997Z,25.67
2018-05-29T08:36:16.120Z,21.47
2018-05-29T08:38:42.277Z,22.60
2018-05-29T08:41:09.226Z,23.07
2018-05-29T08:43:36.185Z,18.60
2018-05-29T08:46:02.413Z,17.87
2018-05-29T08:48:28.626Z,19.10
2018-05-29T08:50:54.857Z,20.33
2018-05-29T08:53:21.073Z,22.80
2018-05-29T08:55:47.269Z,19.93
2018-05-29T08:58:13.538Z,19.47
2018-05-29T09:00:39.738Z,19.13
2018-05-29T09:03:05.945Z,21.27
2018-05-29T09:05:32.146Z,19.37
2018-05-29T09:07:58.346Z,17.63
2018-05-29T09:10:24.564Z,18.00
2018-05-29T09:12:50.777Z,19.10
2018-05-29T09:15:16.974Z,19.97
2018-05-29T09:17:43.186Z,20.37
2018-05-29T09:20:09.410Z,18.97
2018-05-29T09:22:35.925Z,19.83
2018-05-29T09:25:02.873Z,16.73
2018-05-29T09:27:29.084Z,18.50
2018-05-29T09:29:56.038Z,18.03
2018-05-29T09:32:22.262Z,17.40
2018-05-29T09:34:48.490Z,17.27
2018-05-29T09:37:14.719Z,20.50
2018-05-29T09:39:40.894Z,20.00
2018-05-29T09:42:07.174Z,17.70
2018-05-29T09:44:33.380Z,16.90
2018-05-29T09:46:59.604Z,17.27
2018-05-29T09:49:25.801Z,16.93
2018-05-29T09:51:51.996Z,17.30
2018-05-29T09:54:18.267Z,15.70
2018-05-29T09:56:44.471Z,15.47
2018-05-29T09:59:10.696Z,17.70
2018-05-29T10:01:36.913Z,20.07
2018-05-29T10:04:03.126Z,18.23
2018-05-29T10:06:29.325Z,18.03
2018-05-29T10:08:55.534Z,18.30
2018-05-29T10:11:21.743Z,17.53
2018-05-29T10:13:47.940Z,18.53
2018-05-29T10:16:14.109Z,19.70
2018-05-29T10:18:40.346Z,18.70
2018-05-29T10:21:06.536Z,17.90
2018-05-29T10:23:32.748Z,18.50
2018-05-29T10:25:58.949Z,17.47
2018-05-29T10:28:25.145Z,20.43
2018-05-29T10:30:51.383Z,19.70
2018-05-29T10:33:17.580Z,19.30
2018-05-29T10:35:43.818Z,17.23
2018-05-29T10:38:10.018Z,18.27
2018-05-29T10:40:36.226Z,16.73
2018-05-29T10:43:03.233Z,17.33
2018-05-29T10:45:29.417Z,19.43
2018-05-29T10:47:55.670Z,17.67
2018-05-29T10:50:21.862Z,17.50
2018-05-29T10:52:48.817Z,17.50
2018-05-29T10:55:14.993Z,17.40
2018-05-29T10:57:41.205Z,17.57
2018-05-29T11:00:07.403Z,17.67
2018-05-29T11:02:33.590Z,17.40
2018-05-29T11:04:59.790Z,18.60
2018-05-29T11:07:25.957Z,18.07
2018-05-29T11:09:52.961Z,18.37
2018-05-29T11:12:19.166Z,16.73
2018-05-29T11:14:45.399Z,17.17
2018-05-29T11:17:11.623Z,16.30
2018-05-29T11:19:37.854Z,17.50
2018-05-29T11:22:04.110Z,17.87
2018-05-29T11:24:30.329Z,17.37
2018-05-29T11:26:56.529Z,15.40
2018-05-29T11:29:22.759Z,17.40
2018-05-29T11:31:48.990Z,16.70
2018-05-29T11:34:15.241Z,16.17
2018-05-29T11:36:41.477Z,16.53
2018-05-29T11:39:07.693Z,17.03
2018-05-29T11:41:33.905Z,33.10
2018-05-29T11:44:00.137Z,21.60
2018-05-29T11:46:26.327Z,20.60
2018-05-29T11:48:52.549Z,16.17
2018-05-29T11:51:18.741Z,16.37
2018-05-29T11:53:45.214Z,18.10
2018-05-29T11:56:11.683Z,18.07
2018-05-29T11:58:37.945Z,18.87
2018-05-29T12:01:05.286Z,15.57
2018-05-29T12:03:31.591Z,16.50
2018-05-29T12:05:57.953Z,16.33
2018-05-29T12:08:24.153Z,15.47
2018-05-29T12:10:50.411Z,16.70
2018-05-29T12:13:16.605Z,15.53
2018-05-29T12:15:42.814Z,17.33
2018-05-29T12:18:09.053Z,16.50
2018-05-29T12:20:35.258Z,15.73
2018-05-29T12:23:01.469Z,15.40
2018-05-29T12:25:27.723Z,15.00
2018-05-29T12:27:53.950Z,15.77
2018-05-29T12:30:20.207Z,15.23
2018-05-29T12:32:46.413Z,15.27
2018-05-29T12:35:12.664Z,14.73
2018-05-29T12:37:38.862Z,16.70
2018-05-29T12:40:05.074Z,15.70
2018-05-29T12:42:31.370Z,15.10
2018-05-29T12:44:57.560Z,17.10
2018-05-29T12:47:23.774Z,15.23
2018-05-29T12:49:49.997Z,16.73
2018-05-29T12:52:16.227Z,15.50
2018-05-29T12:54:42.466Z,16.87
2018-05-29T12:57:08.700Z,15.40
2018-05-29T12:59:34.886Z,17.03
2018-05-29T13:02:01.134Z,16.97
2018-05-29T13:04:27.352Z,16.50
2018-05-29T13:06:53.572Z,16.23
2018-05-29T13:09:21.361Z,15.90
2018-05-29T13:11:47.561Z,17.27
2018-05-29T13:14:14.526Z,16.60
2018-05-29T13:16:40.800Z,18.10
2018-05-29T13:19:07.011Z,17.93
2018-05-29T13:21:33.229Z,16.63
2018-05-29T13:23:59.451Z,16.87
2018-05-29T13:26:25.685Z,17.20
2018-05-29T13:28:51.886Z,17.03
2018-05-29T13:31:18.197Z,18.13
2018-05-29T13:33:44.402Z,18.30
2018-05-29T13:36:10.730Z,17.53
2018-05-29T13:38:36.931Z,17.60
2018-05-29T13:41:03.183Z,17.00
2018-05-29T13:43:29.416Z,18.20
2018-05-29T13:45:55.658Z,20.23
2018-05-29T13:48:21.875Z,17.60
2018-05-29T13:50:48.065Z,17.20
2018-05-29T13:53:14.287Z,16.33
2018-05-29T13:55:40.524Z,18.20
2018-05-29T13:58:06.781Z,18.90
2018-05-29T14:00:32.971Z,18.57
2018-05-29T14:02:59.234Z,18.23
2018-05-29T14:05:25.454Z,18.47
2018-05-29T14:07:51.686Z,19.40
2018-05-29T14:10:17.922Z,19.03
2018-05-29T14:12:44.174Z,19.63
2018-05-29T14:15:11.133Z,17.47
2018-05-29T14:17:37.345Z,24.37
2018-05-29T14:20:03.577Z,19.00
2018-05-29T14:22:29.787Z,19.17
2018-05-29T14:24:56.001Z,21.63
2018-05-29T14:27:22.233Z,21.13
2018-05-29T14:29:48.421Z,18.43
2018-05-29T14:32:14.642Z,18.50
2018-05-29T14:34:40.849Z,14.10
2018-05-29T14:37:07.840Z,11.60
2018-05-29T14:39:34.081Z,14.40
2018-05-29T14:42:00.324Z,11.60
2018-05-29T14:44:26.518Z,12.83
2018-05-29T14:46:52.754Z,12.53
2018-05-29T14:49:18.973Z,12.87
2018-05-29T14:51:45.181Z,11.30
2018-05-29T14:54:11.877Z,13.50
2018-05-29T14:56:38.133Z,11.77
2018-05-29T14:59:04.442Z,10.80
2018-05-29T15:01:30.645Z,11.33
2018-05-29T15:03:56.902Z,11.40
2018-05-29T15:06:23.119Z,11.70
2018-05-29T15:08:49.491Z,11.30
2018-05-29T15:11:15.672Z,11.97
2018-05-29T15:13:41.904Z,12.40
2018-05-29T15:16:08.098Z,13.23
2018-05-29T15:18:34.379Z,13.20
2018-05-29T15:21:00.545Z,12.70
2018-05-29T15:23:26.770Z,12.63
2018-05-29T15:25:52.984Z,13.20
2018-05-29T15:28:19.220Z,13.63
2018-05-29T15:30:45.474Z,13.47
2018-05-29T15:33:11.801Z,13.50
2018-05-29T15:35:37.995Z,13.40
2018-05-29T15:38:04.993Z,10.60
2018-05-29T15:40:31.185Z,11.83
2018-05-29T15:42:57.398Z,11.13
2018-05-29T15:45:23.601Z,11.60
2018-05-29T15:47:50.827Z,10.60
2018-05-29T15:50:17.095Z,11.00
2018-05-29T15:52:43.423Z,11.10
2018-05-29T15:55:09.639Z,10.33
2018-05-29T15:57:36.650Z,11.73
2018-05-29T16:00:02.889Z,10.73
2018-05-29T16:02:29.117Z,11.57
2018-05-29T16:04:55.400Z,11.00
2018-05-29T16:07:21.733Z,10.80
2018-05-29T16:09:48.024Z,11.33
2018-05-29T16:12:14.237Z,11.20
2018-05-29T16:14:40.487Z,11.27
2018-05-29T16:17:06.778Z,10.47
2018-05-29T16:19:33.292Z,11.20
2018-05-29T16:21:59.488Z,10.17
2018-05-29T16:24:25.819Z,11.60
2018-05-29T16:26:52.050Z,11.03
2018-05-29T16:29:18.300Z,11.93
2018-05-29T16:31:44.486Z,10.97
2018-05-29T16:34:10.695Z,10.90
2018-05-29T16:36:36.917Z,12.30
2018-05-29T16:39:03.298Z,11.93
2018-05-29T16:41:29.597Z,12.90
2018-05-29T16:43:56.595Z,11.97
2018-05-29T16:46:22.832Z,11.03
2018-05-29T16:48:49.056Z,13.20
2018-05-29T16:51:15.266Z,14.03
2018-05-29T16:53:41.496Z,14.03
2018-05-29T16:56:07.720Z,12.80
2018-05-29T16:58:33.978Z,13.47
2018-05-29T17:01:00.201Z,14.23
2018-05-29T17:03:26.405Z,14.53
2018-05-29T17:05:52.632Z,14.07
2018-05-29T17:08:18.934Z,12.97
2018-05-29T17:10:45.887Z,14.97
2018-05-29T17:13:12.155Z,14.30
2018-05-29T17:15:38.400Z,12.90
2018-05-29T17:18:04.677Z,13.27
2018-05-29T17:20:30.970Z,13.63
2018-05-29T17:22:57.187Z,14.70
2018-05-29T17:25:23.421Z,14.17
2018-05-29T17:27:49.625Z,16.07
2018-05-29T17:30:15.885Z,14.50
2018-05-29T17:32:42.140Z,15.20
2018-05-29T17:35:08.367Z,15.67
2018-05-29T17:37:34.557Z,15.20
2018-05-29T17:40:00.778Z,15.43
2018-05-29T17:42:26.967Z,16.10
2018-05-29T17:44:53.197Z,15.90
2018-05-29T17:47:19.415Z,14.27
2018-05-29T17:49:45.644Z,15.73
2018-05-29T17:52:12.066Z,16.33
2018-05-29T17:54:38.267Z,15.77
2018-05-29T17:57:04.482Z,18.60
2018-05-29T17:59:30.819Z,41.87
2018-05-29T18:01:57.421Z,15.60
2018-05-29T18:04:23.661Z,17.80
2018-05-29T18:06:49.881Z,16.57
2018-05-29T18:09:16.746Z,16.50
2018-05-29T18:11:42.967Z,15.37
2018-05-29T18:14:09.247Z,16.50
2018-05-29T18:16:36.246Z,15.13
2018-05-29T18:19:02.581Z,17.73
2018-05-29T18:21:28.798Z,17.10
2018-05-29T18:23:55.023Z,16.40
2018-05-29T18:26:21.470Z,15.20
2018-05-29T18:28:47.759Z,14.93
2018-05-29T18:31:14.134Z,14.37
2018-05-29T18:33:40.349Z,13.40
2018-05-29T18:36:06.722Z,15.60
2018-05-29T18:38:32.980Z,13.67
2018-05-29T18:40:59.488Z,14.60
2018-05-29T18:43:25.792Z,14.77
2018-05-29T18:45:52.210Z,16.20
2018-05-29T18:48:18.596Z,14.73
2018-05-29T18:50:44.831Z,15.10
2018-05-29T18:53:11.027Z,16.60
2018-05-29T18:55:38.055Z,14.83
2018-05-29T18:58:04.295Z,15.53
2018-05-29T19:00:30.574Z,16.43
2018-05-29T19:02:56.786Z,15.70
2018-05-29T19:05:23.366Z,16.70
2018-05-29T19:07:49.625Z,19.40
2018-05-29T19:10:16.600Z,16.20
2018-05-29T19:12:42.835Z,16.33
2018-05-29T19:15:09.464Z,18.07
2018-05-29T19:17:35.931Z,16.67
2018-05-29T19:20:02.200Z,17.43
2018-05-29T19:22:28.471Z,18.27
2018-05-29T19:24:54.706Z,16.40
2018-05-29T19:27:20.913Z,18.77
2018-05-29T19:29:47.491Z,16.40
2018-05-29T19:32:13.686Z,16.80
2018-05-29T19:34:39.928Z,17.90
2018-05-29T19:37:06.165Z,17.17
2018-05-29T19:39:32.385Z,18.13
2018-05-29T19:41:58.587Z,18.73
2018-05-29T19:44:24.991Z,17.60
2018-05-29T19:46:51.165Z,19.33
2018-05-29T19:49:17.373Z,16.67
2018-05-29T19:51:43.800Z,18.23
2018-05-29T19:54:09.985Z,18.43
2018-05-29T19:56:36.308Z,18.00
2018-05-29T19:59:02.714Z,18.97
2018-05-29T20:01:28.989Z,19.90
2018-05-29T20:03:55.187Z,19.23
2018-05-29T20:06:21.426Z,17.90
2018-05-29T20:08:47.642Z,17.90
2018-05-29T20:11:13.851Z,19.47
2018-05-29T20:13:40.057Z,18.30
2018-05-29T20:16:06.413Z,18.93
2018-05-29T20:18:32.880Z,19.10
2018-05-29T20:20:59.126Z,18.73
2018-05-29T20:23:25.420Z,19.50
2018-05-29T20:25:51.750Z,19.60
2018-05-29T20:28:18.341Z,18.80
2018-05-29T20:30:44.578Z,19.40
2018-05-29T20:33:10.851Z,20.33
2018-05-29T20:35:37.267Z,21.77
2018-05-29T20:38:03.470Z,19.60
2018-05-29T20:40:30.676Z,20.20
2018-05-29T20:42:57.613Z,21.20
2018-05-29T20:45:23.841Z,20.20
2018-05-29T20:47:50.061Z,23.00
2018-05-29T20:50:16.313Z,21.93
2018-05-29T20:52:42.507Z,23.97
2018-05-29T20:55:09.083Z,21.57
2018-05-29T20:57:35.312Z,23.10
2018-05-29T21:00:01.742Z,21.57
2018-05-29T21:02:28.014Z,20.80
2018-05-29T21:04:54.201Z,22.70
2018-05-29T21:07:20.440Z,22.83
2018-05-29T21:09:46.694Z,21.67
2018-05-29T21:12:12.929Z,23.70
2018-05-29T21:14:39.125Z,21.93
2018-05-29T21:17:05.357Z,26.00
2018-05-29T21:19:31.759Z,25.87
2018-05-29T21:21:58.696Z,25.23
2018-05-29T21:24:24.861Z,25.20
2018-05-29T21:26:51.268Z,26.70
2018-05-29T21:29:17.446Z,25.50
2018-05-29T21:31:43.653Z,26.20
2018-05-29T21:34:09.846Z,27.20
2018-05-29T21:36:36.814Z,26.67
2018-05-29T21:39:03.045Z,28.93
2018-05-29T21:41:29.421Z,28.40
2018-05-29T21:43:55.613Z,27.70
2018-05-29T21:46:21.834Z,28.07
2018-05-29T21:48:48.065Z,27.90
2018-05-29T21:51:14.353Z,26.73
2018-05-29T21:53:40.675Z,30.20
2018-05-29T21:56:06.857Z,30.23
2018-05-29T21:58:33.054Z,29.87
2018-05-29T22:00:59.305Z,30.57
2018-05-29T22:03:25.491Z,29.07
2018-05-29T22:05:51.702Z,27.20
2018-05-29T22:08:17.890Z,27.87
2018-05-29T22:10:44.133Z,28.57
2018-05-29T22:13:10.334Z,26.80
2018-05-29T22:15:36.534Z,26.40
2018-05-29T22:18:03.554Z,25.07
2018-05-29T22:20:29.770Z,25.67
2018-05-29T22:22:56.404Z,25.20
2018-05-29T22:25:22.601Z,25.00
2018-05-29T22:27:48.832Z,23.90
2018-05-29T22:30:15.057Z,23.43
2018-05-29T22:32:41.266Z,23.37
2018-05-29T22:35:07.496Z,23.60
2018-05-29T22:37:33.690Z,23.00
2018-05-29T22:39:59.897Z,23.13
2018-05-29T22:42:26.113Z,23.73
2018-05-29T22:44:52.318Z,25.20
2018-05-29T22:47:18.515Z,25.90
2018-05-29T22:49:44.729Z,24.73
2018-05-29T22:52:11.001Z,25.07
2018-05-29T22:54:37.198Z,27.07
2018-05-29T22:57:03.495Z,27.57
2018-05-29T22:59:29.694Z,28.50
2018-05-29T23:01:55.908Z,24.87
2018-05-29T23:04:22.093Z,26.67
2018-05-29T23:06:48.323Z,28.50
2018-05-29T23:09:14.514Z,27.87
2018-05-29T23:11:40.721Z,26.77
2018-05-29T23:14:06.927Z,27.93
2018-05-29T23:16:33.149Z,27.40
2018-05-29T23:19:00.077Z,30.40
2018-05-29T23:21:27.034Z,27.57
2018-05-29T23:23:53.245Z,26.80
2018-05-29T23:26:19.516Z,28.53
2018-05-29T23:28:45.720Z,27.90
2018-05-29T23:31:11.897Z,27.47
2018-05-29T23:33:38.109Z,27.30
2018-05-29T23:36:04.329Z,29.43
2018-05-29T23:38:30.536Z,25.83
2018-05-29T23:40:56.726Z,27.67
2018-05-29T23:43:22.926Z,26.93
2018-05-29T23:45:49.142Z,25.30
2018-05-29T23:48:15.393Z,25.20
2018-05-29T23:50:41.574Z,25.30
2018-05-29T23:53:08.527Z,26.60
2018-05-29T23:55:34.810Z,25.90
2018-05-29T23:58:01.017Z,27.07
